West York, Illinois
Current Conditions -  °F | °C
As of 12:55 AM on Friday 28 Nov 2014 (Local Time) from KRSV Reporting Station
Clear Clear  
Wind Chill: 14°   Ceiling: Unl
Heat Index: 20°   Visibility: 10mi
Dew Point: 18°   Wind: 5mph
Humidity: 90%   Direction: 270°W
Pressure: 30.45"   Gusts: NA
Location:  39.17°N, 87.67°W
Report Text: KRSV 280655Z AUTO 27004KT 10SM CLR M06/M08 A3045 RMK AO2 T10651079
Loading
Personal Weather Stations






























Interactive Weather Map New forecast layout! Learn more

10-Day Weather Forecast

Advertisements
Track Severe Weather on mobile